Terminal Aerodrome Forecast
Issued by NWS

Home | Current Version | Previous Version | Text Only | Print | Product List | Glossary On
Versions: 1 2 3 4 5 6 7 8 9 10 11 12 13 14 15 16 17 18 19
000
FTUS43 KILX 272330
TAFDEC
TAF
KDEC 272330Z 2800/2824 VRB03KT P6SM SCT200
     FM280800 VRB03KT P6SM BKN200
      TEMPO 2808/2812 5SM BR
     FM281700 VRB05KT P6SM VCSH BKN050=

USA.gov is the U.S. government's official web portal to all federal, state and local government web resources and services.